Time;durP1;ratioP1;P1;durP2;ratioP2;P2;SDS_P1;SDS_P2;PMS_P1;PMS_P2;Temp;Humidity;BMP_temperature;BMP_pressure;BME280_temperature;BME280_humidity;BME280_pressure;Samples;Min_cycle;Max_cycle;Signal;HPM_P1;HPM_P2
2021/11/12 00:13:43;;;;;;;45.10;19.47;;;5.80;99.90;;;;;;4976065;28;21205;-53
2021/11/12 00:16:09;;;;;;;42.30;18.20;;;6.10;99.90;;;;;;4976650;28;20463;-51
2021/11/12 00:18:37;;;;;;;39.83;18.53;;;5.90;99.90;;;;;;4976227;28;21005;-54
2021/11/12 00:21:04;;;;;;;37.07;17.93;;;5.90;99.90;;;;;;4976416;28;20449;-51
2021/11/12 00:23:33;;;;;;;31.30;16.00;;;6.00;99.90;;;;;;4978905;28;20460;-52
2021/11/12 00:26:00;;;;;;;39.60;18.50;;;6.20;99.90;;;;;;4983463;28;20445;-51
2021/11/12 00:28:29;;;;;;;40.00;19.07;;;6.20;99.90;;;;;;4982222;28;20492;-51
2021/11/12 00:34:02;;;;;;;40.30;19.20;;;6.00;99.90;;;;;;4975933;28;20491;-52
2021/11/12 00:36:44;;;;;;;37.60;19.47;;;6.10;99.90;;;;;;4977847;28;20448;-49
2021/11/12 00:39:26;;;;;;;36.57;18.13;;;6.10;99.90;;;;;;4976517;28;20841;-50
2021/11/12 00:42:17;;;;;;;37.37;17.47;;;6.10;99.90;;;;;;4976280;28;22935;-53
2021/11/12 00:44:43;;;;;;;34.47;18.23;;;6.00;99.90;;;;;;4979726;28;20447;-52
2021/11/12 00:47:23;;;;;;;33.73;18.93;;;6.00;99.90;;;;;;4975124;28;20500;-53
2021/11/12 00:53:42;;;;;;;34.43;18.73;;;6.10;99.90;;;;;;4974305;28;20559;-50
2021/11/12 00:55:29;;;;;;;34.40;18.20;;;6.20;99.90;;;;;;4973981;28;20452;-52
2021/11/12 00:57:57;;;;;;;33.93;18.90;;;6.20;99.90;;;;;;4976318;28;20453;-50
2021/11/12 01:00:24;;;;;;;32.03;18.63;;;6.10;99.90;;;;;;4963219;28;21206;-52
2021/11/12 01:02:50;;;;;;;29.87;17.30;;;6.10;99.90;;;;;;4977893;28;20441;-54
2021/11/12 01:05:16;;;;;;;34.63;17.37;;;5.90;99.90;;;;;;4974070;28;20443;-52
2021/11/12 01:07:42;;;;;;;30.87;18.10;;;5.70;99.90;;;;;;4975402;28;20281;-51
2021/11/12 01:10:11;;;;;;;30.40;16.30;;;5.60;99.90;;;;;;4974970;28;20220;-50
2021/11/12 01:12:38;;;;;;;36.00;18.00;;;5.70;99.90;;;;;;4976161;28;20532;-52
2021/11/12 01:15:07;;;;;;;34.23;17.87;;;5.80;99.90;;;;;;4978732;28;20440;-51
2021/11/12 01:17:32;;;;;;;41.43;18.57;;;5.30;99.90;;;;;;4975338;28;20952;-52
2021/11/12 01:19:58;;;;;;;31.50;18.00;;;5.30;99.90;;;;;;4975797;28;20509;-53
2021/11/12 01:22:24;;;;;;;31.57;17.07;;;5.40;99.90;;;;;;4977229;28;20319;-51
2021/11/12 01:24:50;;;;;;;34.77;17.73;;;5.40;99.90;;;;;;4978725;28;20200;-51
2021/11/12 01:27:16;;;;;;;35.03;18.07;;;5.60;99.90;;;;;;4975569;28;20216;-53
2021/11/12 01:29:43;;;;;;;38.93;19.57;;;5.60;99.90;;;;;;4981361;28;20473;-48
2021/11/12 01:32:26;;;;;;;38.60;19.83;;;5.70;99.90;;;;;;4978864;28;20190;-54
2021/11/12 01:34:57;;;;;;;30.97;18.10;;;5.60;99.90;;;;;;4981284;28;20453;-53
2021/11/12 01:37:25;;;;;;;31.50;17.03;;;5.80;99.90;;;;;;4979968;28;20460;-52
2021/11/12 01:39:55;;;;;;;36.40;18.93;;;5.70;99.90;;;;;;4982370;28;20457;-48
2021/11/12 01:42:22;;;;;;;36.07;19.10;;;5.40;99.90;;;;;;4979575;28;20528;-50
2021/11/12 01:44:57;;;;;;;34.83;18.07;;;5.40;99.90;;;;;;4980547;28;21110;-54
2021/11/12 01:49:57;;;;;;;30.93;16.37;;;5.60;99.90;;;;;;4980405;28;20465;-53
2021/11/12 01:52:37;;;;;;;29.23;17.50;;;5.40;99.90;;;;;;4979832;28;20509;-50
2021/11/12 01:55:09;;;;;;;35.30;16.37;;;5.60;99.90;;;;;;4978806;28;20968;-52
2021/11/12 01:57:50;;;;;;;37.30;17.80;;;5.40;99.90;;;;;;4975295;28;20444;-50
2021/11/12 02:00:19;;;;;;;30.17;17.83;;;5.30;99.90;;;;;;4980220;28;20865;-52
2021/11/12 02:02:45;;;;;;;29.97;16.10;;;5.10;99.90;;;;;;4981369;28;20452;-48
2021/11/12 02:05:12;;;;;;;27.17;15.47;;;5.10;99.90;;;;;;4980964;28;20456;-50
2021/11/12 02:07:39;;;;;;;30.80;15.00;;;5.00;99.90;;;;;;4980597;28;20468;-52
2021/11/12 02:10:14;;;;;;;35.57;17.63;;;4.80;99.90;;;;;;4976719;28;20476;-52
2021/11/12 02:12:49;;;;;;;32.37;17.20;;;5.10;99.90;;;;;;4983016;28;20532;-53
2021/11/12 02:15:16;;;;;;;34.97;17.80;;;5.30;99.90;;;;;;4979823;28;20795;-54
2021/11/12 02:17:46;;;;;;;32.60;17.47;;;5.20;99.90;;;;;;4981368;28;20528;-52
2021/11/12 02:20:19;;;;;;;30.80;15.90;;;5.50;99.90;;;;;;4976999;28;20497;-51
2021/11/12 02:22:47;;;;;;;33.10;16.20;;;5.30;99.90;;;;;;4980688;28;20438;-52
2021/11/12 02:25:15;;;;;;;31.80;16.50;;;5.30;99.90;;;;;;4980067;28;20511;-52
2021/11/12 02:27:52;;;;;;;27.67;17.07;;;5.50;99.90;;;;;;4979826;28;20476;-51
2021/11/12 02:30:28;;;;;;;30.67;15.83;;;5.60;99.90;;;;;;4977257;28;20488;-54
2021/11/12 02:33:12;;;;;;;28.47;15.17;;;5.70;99.90;;;;;;4976350;28;20449;-50
2021/11/12 02:35:41;;;;;;;27.00;16.33;;;5.80;99.90;;;;;;4978148;28;20456;-51
2021/11/12 02:38:07;;;;;;;27.57;14.30;;;5.80;99.90;;;;;;4977783;28;20499;-51
2021/11/12 02:40:35;;;;;;;27.93;14.67;;;5.80;99.90;;;;;;4979131;28;20477;-53
2021/11/12 02:43:02;;;;;;;28.97;16.13;;;6.00;99.90;;;;;;4982059;28;20494;-52
2021/11/12 02:45:29;;;;;;;28.30;14.00;;;5.90;99.90;;;;;;4977357;28;20453;-51
2021/11/12 02:47:55;;;;;;;30.77;14.70;;;5.90;99.90;;;;;;4977542;28;20637;-51
2021/11/12 02:50:21;;;;;;;27.37;15.27;;;5.70;99.90;;;;;;4977945;28;20477;-53
2021/11/12 02:52:52;;;;;;;25.20;13.77;;;5.90;99.90;;;;;;4978368;28;20445;-47
2021/11/12 02:55:18;;;;;;;22.20;13.73;;;5.90;99.90;;;;;;4979528;28;20444;-52
2021/11/12 02:57:44;;;;;;;31.13;14.60;;;5.90;99.90;;;;;;4979537;28;20452;-51
2021/11/12 03:00:13;;;;;;;27.13;15.50;;;5.90;99.90;;;;;;4978196;28;21013;-50
2021/11/12 03:02:39;;;;;;;26.73;15.27;;;5.60;99.90;;;;;;4977178;28;20452;-52
2021/11/12 03:05:05;;;;;;;26.07;15.07;;;4.90;99.90;;;;;;4972806;28;20445;-48
2021/11/12 03:07:31;;;;;;;29.97;16.47;;;4.60;99.90;;;;;;4989594;28;20607;-52
2021/11/12 03:09:56;;;;;;;21.77;14.83;;;4.80;99.90;;;;;;4983745;28;20529;-49
2021/11/12 03:12:24;;;;;;;24.20;14.30;;;5.10;99.90;;;;;;4981895;28;20248;-52
2021/11/12 03:14:50;;;;;;;20.77;13.97;;;5.10;99.90;;;;;;4976161;28;20556;-51
2021/11/12 03:17:16;;;;;;;25.20;14.30;;;5.30;99.90;;;;;;4975739;28;20446;-53
2021/11/12 03:19:44;;;;;;;20.80;14.83;;;5.20;99.90;;;;;;4978116;28;20462;-50
2021/11/12 03:22:12;;;;;;;25.97;15.10;;;5.10;99.90;;;;;;4977162;28;20571;-51
2021/11/12 03:25:01;;;;;;;25.37;14.53;;;4.90;99.90;;;;;;4978558;28;20483;-50
2021/11/12 03:27:39;;;;;;;23.90;16.10;;;4.90;99.90;;;;;;4979668;28;20469;-52
2021/11/12 03:49:57;;;;;;;25.27;13.40;;;5.50;99.90;;;;;;4976108;28;20852;-53
2021/11/12 04:00:41;;;;;;;21.53;11.97;;;5.50;99.90;;;;;;4975141;28;20530;-50
2021/11/12 04:05:54;;;;;;;23.73;12.63;;;5.40;99.90;;;;;;4976319;28;20436;-53
2021/11/12 04:22:09;;;;;;;19.77;11.83;;;5.60;99.90;;;;;;4976687;28;20452;-50
2021/11/12 04:49:39;;;;;;;20.70;11.93;;;5.40;99.90;;;;;;4977960;28;20484;-53
2021/11/12 05:57:23;;;;;;;18.53;10.83;;;4.90;99.90;;;;;;4978316;28;20450;-51
2021/11/12 05:59:49;;;;;;;18.77;11.50;;;5.00;99.90;;;;;;4969446;28;20465;-52
2021/11/12 06:02:16;;;;;;;21.57;11.10;;;4.80;99.90;;;;;;4975465;28;20281;-54
2021/11/12 06:04:41;;;;;;;19.23;11.13;;;4.70;99.90;;;;;;4983157;28;20186;-51
2021/11/12 06:07:07;;;;;;;22.03;12.00;;;4.40;99.90;;;;;;4980222;28;20838;-50
2021/11/12 06:09:33;;;;;;;17.17;12.43;;;4.60;99.90;;;;;;4980242;28;20256;-52
2021/11/12 06:11:58;;;;;;;21.63;12.10;;;4.90;99.90;;;;;;4979156;28;20185;-50
2021/11/12 06:14:26;;;;;;;18.73;11.67;;;5.00;99.90;;;;;;4977315;28;20261;-52
2021/11/12 06:16:52;;;;;;;20.40;12.10;;;4.80;99.90;;;;;;4978609;28;20185;-48
2021/11/12 06:19:19;;;;;;;21.57;13.27;;;4.70;99.90;;;;;;4981398;28;20879;-53
2021/11/12 06:21:46;;;;;;;19.30;11.90;;;4.90;99.90;;;;;;4980516;28;20429;-54
2021/11/12 06:24:12;;;;;;;19.77;11.40;;;5.00;99.90;;;;;;4973755;28;20442;-52
2021/11/12 06:26:39;;;;;;;19.90;11.27;;;5.10;99.90;;;;;;4978866;28;20476;-50
2021/11/12 06:29:06;;;;;;;23.13;12.10;;;5.20;99.90;;;;;;4976332;28;20480;-51
2021/11/12 06:31:32;;;;;;;24.60;11.70;;;5.10;99.90;;;;;;4971363;28;20446;-52
2021/11/12 06:33:58;;;;;;;18.73;11.73;;;4.80;99.90;;;;;;4978428;28;20511;-53
2021/11/12 06:36:25;;;;;;;21.97;11.20;;;4.80;99.90;;;;;;4978378;28;20532;-50
2021/11/12 06:38:52;;;;;;;18.80;11.43;;;4.70;99.90;;;;;;4979579;28;20214;-53
2021/11/12 06:41:27;;;;;;;18.77;11.13;;;4.70;99.90;;;;;;4979138;28;20911;-51
2021/11/12 06:43:58;;;;;;;18.57;10.83;;;4.60;99.90;;;;;;4982370;28;20894;-53
2021/11/12 06:51:53;;;;;;;17.97;11.97;;;4.50;99.90;;;;;;4984066;28;20482;-51
2021/11/12 06:54:19;;;;;;;18.03;9.80;;;4.60;99.90;;;;;;4984147;28;20452;-54
2021/11/12 06:56:46;;;;;;;21.83;11.93;;;4.50;99.90;;;;;;4978166;28;20301;-50
2021/11/12 06:59:12;;;;;;;16.47;12.67;;;4.30;99.90;;;;;;4983132;28;20441;-53
2021/11/12 07:01:37;;;;;;;17.20;11.83;;;4.20;99.90;;;;;;4979783;28;20475;-52
2021/11/12 07:04:04;;;;;;;20.17;12.10;;;4.40;99.90;;;;;;4984854;28;20193;-50
2021/11/12 07:06:29;;;;;;;14.87;10.70;;;4.50;99.90;;;;;;4982485;28;20253;-51
2021/11/12 07:08:55;;;;;;;16.47;10.30;;;4.80;99.90;;;;;;4979793;28;20480;-48
2021/11/12 07:11:21;;;;;;;19.30;11.27;;;5.00;99.90;;;;;;4980644;28;20194;-52
2021/11/12 07:13:48;;;;;;;16.20;11.33;;;5.10;99.90;;;;;;4981521;28;20186;-50
2021/11/12 07:16:14;;;;;;;17.90;11.10;;;5.00;99.90;;;;;;4979272;28;20437;-49
2021/11/12 07:18:39;;;;;;;18.83;10.53;;;5.10;99.90;;;;;;4979310;28;20630;-49
2021/11/12 07:21:05;;;;;;;20.03;11.77;;;5.30;99.90;;;;;;4981886;28;20182;-52
2021/11/12 07:23:31;;;;;;;17.63;10.43;;;5.00;99.90;;;;;;4980307;28;20186;-49
2021/11/12 07:25:58;;;;;;;18.27;10.47;;;5.20;99.90;;;;;;4982689;28;20214;-51
2021/11/12 07:28:25;;;;;;;18.63;11.20;;;5.30;99.90;;;;;;4982065;28;20523;-49
2021/11/12 07:30:52;;;;;;;15.20;10.60;;;5.30;99.90;;;;;;4979950;28;20436;-52
2021/11/12 07:33:18;;;;;;;18.60;11.87;;;5.10;99.90;;;;;;4977909;28;20445;-50
2021/11/12 07:38:26;;;;;;;16.77;11.37;;;4.60;99.90;;;;;;4979387;28;20445;-50
2021/11/12 07:48:20;;;;;;;16.90;12.33;;;4.90;99.90;;;;;;4981202;28;20472;-52
2021/11/12 07:50:46;;;;;;;16.33;11.23;;;4.80;99.90;;;;;;4978944;28;20903;-50
2021/11/12 07:53:11;;;;;;;19.50;12.47;;;4.90;99.90;;;;;;4980098;28;20309;-50
2021/11/12 07:55:37;;;;;;;17.13;12.20;;;5.20;99.90;;;;;;4979194;28;20253;-51
2021/11/12 07:58:03;;;;;;;19.43;12.53;;;5.10;99.90;;;;;;4979508;28;20190;-50
2021/11/12 08:00:28;;;;;;;20.23;12.93;;;5.10;99.90;;;;;;4979995;28;20219;-50
2021/11/12 08:02:54;;;;;;;16.50;11.50;;;5.40;99.90;;;;;;4978615;28;20194;-52
2021/11/12 08:05:24;;;;;;;15.67;11.13;;;5.10;99.90;;;;;;4979251;28;20200;-51
2021/11/12 08:07:53;;;;;;;19.37;13.43;;;5.20;99.90;;;;;;4978212;28;20293;-49
2021/11/12 08:10:22;;;;;;;17.90;11.87;;;5.20;99.90;;;;;;4979981;28;20556;-52
2021/11/12 08:13:33;;;;;;;23.70;12.67;;;5.30;99.90;;;;;;4977718;28;20425;-49
2021/11/12 08:15:45;;;;;;;15.53;11.03;;;5.50;99.90;;;;;;4973313;28;20432;-52
2021/11/12 08:21:06;;;;;;;19.80;12.37;;;5.70;99.90;;;;;;4977195;28;20446;-52
2021/11/12 08:23:46;;;;;;;20.67;12.50;;;5.70;99.90;;;;;;4975503;28;20971;-49
2021/11/12 08:34:22;;;;;;;25.97;13.27;;;5.80;99.90;;;;;;4979661;28;20910;-48
2021/11/12 08:41:58;;;;;;;16.57;11.73;;;5.90;99.90;;;;;;4976942;28;20425;-46
2021/11/12 08:44:37;;;;;;;18.47;13.30;;;5.90;99.90;;;;;;4978682;28;20504;-46
2021/11/12 08:49:33;;;;;;;22.27;12.80;;;5.80;99.90;;;;;;4974922;28;21810;-50
2021/11/12 08:52:01;;;;;;;20.70;12.33;;;5.90;99.90;;;;;;4980235;28;20468;-48
2021/11/12 08:54:31;;;;;;;20.47;13.67;;;5.70;99.90;;;;;;4980619;28;20457;-49
2021/11/12 08:56:57;;;;;;;19.70;13.40;;;5.50;99.90;;;;;;4977214;28;20473;-49
2021/11/12 08:59:23;;;;;;;21.63;12.90;;;5.20;99.90;;;;;;4984141;28;20448;-51
2021/11/12 09:01:49;;;;;;;21.80;14.00;;;5.10;99.90;;;;;;4978952;28;20426;-49
2021/11/12 09:04:15;;;;;;;19.93;15.23;;;4.90;99.90;;;;;;4979462;28;20488;-50
2021/11/12 09:06:41;;;;;;;21.87;13.87;;;4.80;99.90;;;;;;4978814;28;20190;-53
2021/11/12 09:09:07;;;;;;;20.73;13.80;;;4.60;99.90;;;;;;4977549;28;20213;-52
2021/11/12 09:11:32;;;;;;;24.10;13.93;;;4.60;99.90;;;;;;4977217;28;20860;-51
2021/11/12 09:14:05;;;;;;;20.60;14.67;;;5.00;99.90;;;;;;4979961;28;20693;-51
2021/11/12 09:16:35;;;;;;;24.60;14.00;;;5.20;99.90;;;;;;4979674;28;20186;-53
2021/11/12 09:19:03;;;;;;;16.70;12.40;;;5.00;99.90;;;;;;4977101;28;20452;-50
2021/11/12 09:21:29;;;;;;;20.20;13.50;;;4.90;99.90;;;;;;4975055;28;20445;-52
2021/11/12 09:23:56;;;;;;;23.90;14.20;;;5.30;99.90;;;;;;4977607;28;20435;-48
2021/11/12 09:26:23;;;;;;;26.00;14.00;;;5.50;99.90;;;;;;4981847;28;20193;-51
2021/11/12 09:28:49;;;;;;;20.37;13.80;;;5.40;99.90;;;;;;4977865;28;20502;-50
2021/11/12 09:31:16;;;;;;;22.47;14.33;;;5.50;99.90;;;;;;4982170;28;20423;-52
2021/11/12 09:33:42;;;;;;;23.70;14.77;;;5.40;99.90;;;;;;4979925;28;20468;-52
2021/11/12 09:36:09;;;;;;;19.27;12.80;;;5.20;99.90;;;;;;4978261;28;20489;-52
2021/11/12 09:38:36;;;;;;;24.70;15.27;;;4.80;99.90;;;;;;4977806;28;20437;-52
2021/11/12 09:41:04;;;;;;;23.97;15.53;;;4.60;99.90;;;;;;4980034;28;20433;-50
2021/11/12 09:43:30;;;;;;;24.13;14.57;;;4.60;99.90;;;;;;4978917;28;20417;-51
2021/11/12 09:45:55;;;;;;;22.93;15.90;;;4.60;99.90;;;;;;4981517;28;20455;-49
2021/11/12 09:48:22;;;;;;;24.37;17.20;;;4.60;99.90;;;;;;4981958;28;20214;-51
2021/11/12 09:50:49;;;;;;;24.47;15.30;;;4.40;99.90;;;;;;4980549;28;20528;-50
2021/11/12 09:53:14;;;;;;;26.10;15.80;;;4.20;99.90;;;;;;4983952;28;20426;-52
2021/11/12 09:55:41;;;;;;;22.60;15.33;;;4.10;99.90;;;;;;4980185;28;20522;-50
2021/11/12 09:58:07;;;;;;;24.30;17.37;;;4.30;99.90;;;;;;4982836;28;20178;-50
2021/11/12 10:00:35;;;;;;;30.20;16.07;;;4.20;99.90;;;;;;4982184;28;20455;-50
2021/11/12 10:03:02;;;;;;;26.73;16.37;;;4.30;99.90;;;;;;4980422;28;20433;-53
2021/11/12 10:05:33;;;;;;;26.87;17.00;;;4.40;99.90;;;;;;4982928;28;20775;-53
2021/11/12 10:08:01;;;;;;;35.33;17.40;;;4.40;99.90;;;;;;4980267;28;20581;-49
2021/11/12 10:10:27;;;;;;;27.50;18.33;;;4.60;99.90;;;;;;5035526;22;20548;-55
2021/11/12 10:12:56;;;;;;;28.33;16.90;;;4.60;99.90;;;;;;5042356;28;20525;-50
2021/11/12 10:15:32;;;;;;;23.40;15.40;;;4.70;99.90;;;;;;5044420;28;20430;-53
2021/11/12 10:18:07;;;;;;;25.53;16.47;;;4.90;99.90;;;;;;5044480;28;21350;-55
2021/11/12 10:20:33;;;;;;;23.70;15.73;;;4.80;99.90;;;;;;5040592;28;20453;-53
2021/11/12 10:23:11;;;;;;;27.70;14.97;;;4.90;99.90;;;;;;5042239;28;20425;-49
2021/11/12 10:25:50;;;;;;;22.77;15.27;;;4.50;99.90;;;;;;5046511;28;20448;-53
2021/11/12 10:28:40;;;;;;;34.03;18.30;;;4.40;99.90;;;;;;5042293;28;20879;-53
2021/11/12 10:31:17;;;;;;;27.00;15.10;;;4.40;99.90;;;;;;5048738;28;20438;-54
2021/11/12 10:33:48;;;;;;;26.17;15.90;;;4.50;99.90;;;;;;5046502;28;20418;-52
2021/11/12 10:36:13;;;;;;;24.73;15.70;;;4.80;99.90;;;;;;5042329;28;20460;-53
2021/11/12 10:38:44;;;;;;;24.73;15.97;;;5.00;99.90;;;;;;5045794;28;20425;-54
2021/11/12 10:41:29;;;;;;;22.40;14.17;;;5.40;99.90;;;;;;5041022;28;20214;-54
2021/11/12 10:43:55;;;;;;;28.77;15.90;;;5.40;99.90;;;;;;5043761;28;20948;-53
2021/11/12 10:46:38;;;;;;;28.17;14.63;;;5.30;99.90;;;;;;5045452;28;20434;-54
2021/11/12 10:49:27;;;;;;;26.40;15.20;;;5.40;99.90;;;;;;5046617;28;20472;-53
2021/11/12 10:51:56;;;;;;;23.07;15.00;;;5.40;99.90;;;;;;5040826;28;20446;-56
2021/11/12 10:54:59;;;;;;;26.13;16.40;;;5.20;99.90;;;;;;5045428;28;20517;-52
2021/11/12 10:57:27;;;;;;;34.47;16.50;;;5.10;99.90;;;;;;5015433;28;20442;-54
2021/11/12 11:00:15;;;;;;;32.77;18.40;;;5.00;99.90;;;;;;5042407;28;20446;-54
2021/11/12 11:02:46;;;;;;;29.43;17.10;;;5.10;99.90;;;;;;5045947;28;20430;-54
2021/11/12 11:05:27;;;;;;;32.77;20.07;;;5.20;99.90;;;;;;5045608;28;20432;-52
2021/11/12 11:07:53;;;;;;;29.70;17.93;;;5.10;99.90;;;;;;5041130;28;20480;-53
2021/11/12 11:10:26;;;;;;;33.57;16.60;;;5.40;99.90;;;;;;5047700;28;20539;-54
2021/11/12 11:12:52;;;;;;;37.63;19.90;;;5.60;99.90;;;;;;5043652;28;20642;-53
2021/11/12 11:15:20;;;;;;;34.20;18.90;;;5.30;99.90;;;;;;5044417;28;20442;-54
2021/11/12 11:17:50;;;;;;;31.10;18.13;;;5.20;99.90;;;;;;5046939;28;20516;-52
2021/11/12 11:20:20;;;;;;;31.60;17.97;;;5.40;99.90;;;;;;5046206;28;20457;-54
2021/11/12 11:22:56;;;;;;;31.20;18.17;;;5.40;99.90;;;;;;5041627;28;20548;-54
2021/11/12 11:25:24;;;;;;;32.20;18.37;;;5.50;99.90;;;;;;5044255;28;20603;-54
2021/11/12 11:27:52;;;;;;;33.00;19.87;;;5.60;99.90;;;;;;5044541;28;20466;-53
2021/11/12 11:30:18;;;;;;;28.33;17.17;;;5.40;99.90;;;;;;5043996;28;20453;-51
2021/11/12 11:32:45;;;;;;;33.87;18.27;;;5.40;99.90;;;;;;5042292;28;20425;-56
2021/11/12 11:35:11;;;;;;;34.80;19.10;;;5.30;99.90;;;;;;5044489;28;20700;-55
2021/11/12 11:37:38;;;;;;;33.07;18.33;;;5.30;99.90;;;;;;5040875;28;20430;-52
2021/11/12 11:40:06;;;;;;;38.07;20.23;;;5.10;99.90;;;;;;5046294;28;20872;-53
2021/11/12 11:42:32;;;;;;;32.73;19.70;;;5.20;99.90;;;;;;5040505;28;20444;-56
2021/11/12 11:44:59;;;;;;;38.20;19.73;;;5.20;99.90;;;;;;5042878;28;20850;-54
2021/11/12 11:47:26;;;;;;;37.10;19.40;;;5.40;99.90;;;;;;5041007;28;21055;-55
2021/11/12 11:49:52;;;;;;;29.70;17.60;;;5.40;99.90;;;;;;5042112;28;20454;-50
2021/11/12 11:52:26;;;;;;;32.83;17.13;;;5.40;99.90;;;;;;5047404;28;20414;-54
2021/11/12 11:54:52;;;;;;;32.10;19.37;;;5.30;99.90;;;;;;5040577;28;20196;-52
2021/11/12 11:57:20;;;;;;;36.77;20.70;;;4.80;99.90;;;;;;5044098;28;20433;-52
2021/11/12 11:59:47;;;;;;;32.97;17.17;;;5.00;99.90;;;;;;5047002;28;20652;-54
2021/11/12 12:02:17;;;;;;;30.87;18.53;;;5.10;99.90;;;;;;5043465;28;20890;-52
2021/11/12 12:04:49;;;;;;;33.33;18.00;;;5.20;99.90;;;;;;5041204;28;20443;-51
2021/11/12 12:07:16;;;;;;;32.30;18.90;;;5.10;99.90;;;;;;5044783;28;20422;-51
2021/11/12 12:10:01;;;;;;;32.10;18.20;;;4.90;99.90;;;;;;5044474;28;20640;-54
2021/11/12 12:12:39;;;;;;;30.53;17.67;;;5.10;99.90;;;;;;5041803;28;20438;-51
2021/11/12 12:15:04;;;;;;;29.97;18.03;;;5.20;99.90;;;;;;5044711;28;20793;-55
2021/11/12 12:17:32;;;;;;;26.80;17.53;;;5.10;99.90;;;;;;5038333;28;20424;-54
2021/11/12 13:20:22;;;;;;;34.50;18.07;;;4.90;99.90;;;;;;5040870;28;20468;-55
2021/11/12 13:26:05;;;;;;;30.70;17.20;;;5.00;99.90;;;;;;5033627;28;20434;-53
2021/11/12 13:28:37;;;;;;;34.17;18.90;;;5.10;99.90;;;;;;5043378;28;20465;-57
2021/11/12 13:31:09;;;;;;;33.37;17.90;;;5.00;99.90;;;;;;5046833;28;20495;-55
2021/11/12 13:33:56;;;;;;;28.13;17.50;;;4.60;99.90;;;;;;5047099;28;20410;-54
2021/11/12 13:36:28;;;;;;;32.10;17.33;;;4.70;99.90;;;;;;5045409;28;20422;-53
2021/11/12 13:38:56;;;;;;;29.03;17.37;;;4.80;99.90;;;;;;5043676;28;20459;-57
2021/11/12 13:41:26;;;;;;;31.00;18.17;;;5.20;99.90;;;;;;5046135;28;20469;-51
2021/11/12 13:44:03;;;;;;;32.00;18.40;;;5.30;99.90;;;;;;5046920;28;20434;-57
2021/11/12 13:47:00;;;;;;;33.87;18.87;;;5.20;99.90;;;;;;5045050;28;20429;-56
2021/11/12 13:49:32;;;;;;;28.03;18.50;;;4.90;99.90;;;;;;5042836;28;20873;-55
2021/11/12 13:52:03;;;;;;;25.90;17.60;;;4.70;99.90;;;;;;5061363;28;20441;-55
2021/11/12 13:54:31;;;;;;;33.23;18.70;;;4.70;99.90;;;;;;5044753;28;20413;-51
2021/11/12 13:56:57;;;;;;;33.17;19.47;;;5.00;99.90;;;;;;5052353;28;20418;-54
2021/11/12 13:59:22;;;;;;;38.47;18.23;;;5.00;99.90;;;;;;5044630;28;20523;-55
2021/11/12 14:02:01;;;;;;;34.20;19.40;;;4.90;99.90;;;;;;5044227;28;20192;-54
2021/11/12 14:04:30;;;;;;;28.40;17.60;;;5.00;99.90;;;;;;5047001;28;20192;-52
2021/11/12 14:06:56;;;;;;;32.13;17.73;;;4.90;99.90;;;;;;5041761;28;20479;-53
2021/11/12 14:09:25;;;;;;;33.70;19.37;;;4.70;99.90;;;;;;5052040;28;20893;-53
2021/11/12 14:12:07;;;;;;;39.73;18.83;;;4.60;99.90;;;;;;5046788;28;20871;-52
2021/11/12 14:14:34;;;;;;;30.80;17.83;;;4.80;99.90;;;;;;5041921;28;20438;-57
2021/11/12 14:17:27;;;;;;;34.17;19.17;;;5.10;99.90;;;;;;5049594;28;20424;-56
2021/11/12 14:20:32;;;;;;;30.50;18.83;;;5.20;99.90;;;;;;5047394;28;20523;-56
2021/11/12 14:23:17;;;;;;;38.67;19.60;;;5.20;99.90;;;;;;5042744;28;20435;-52
2021/11/12 14:36:55;;;;;;;39.53;19.30;;;5.10;99.90;;;;;;5047262;28;20450;-54
2021/11/12 14:44:56;;;;;;;35.43;18.53;;;5.10;99.90;;;;;;5043769;28;20525;-55
2021/11/12 14:48:20;;;;;;;39.67;21.20;;;5.30;99.90;;;;;;5042988;28;20430;-57
2021/11/12 14:50:51;;;;;;;34.93;20.37;;;5.40;99.90;;;;;;5035723;28;20441;-51
2021/11/12 14:53:30;;;;;;;38.63;19.70;;;5.50;99.90;;;;;;5044343;28;20423;-51
2021/11/12 14:56:06;;;;;;;39.57;21.07;;;5.50;99.90;;;;;;5046264;28;20417;-53
2021/11/12 14:58:36;;;;;;;48.63;22.40;;;5.30;99.90;;;;;;5042142;28;20448;-53
2021/11/12 15:01:12;;;;;;;42.77;21.77;;;5.10;99.90;;;;;;5045454;28;20450;-57
2021/11/12 15:03:45;;;;;;;39.53;20.80;;;5.10;99.90;;;;;;5042803;28;20444;-54
2021/11/12 15:06:12;;;;;;;33.13;18.40;;;5.10;99.90;;;;;;5041936;28;20421;-55
2021/11/12 15:08:45;;;;;;;35.30;19.40;;;5.10;99.90;;;;;;5045030;28;20462;-54
2021/11/12 15:11:12;;;;;;;36.53;19.47;;;5.20;99.90;;;;;;5043800;28;20943;-54
2021/11/12 15:13:39;;;;;;;38.97;22.67;;;5.30;99.90;;;;;;5044391;28;20506;-53
2021/11/12 15:16:11;;;;;;;36.83;20.40;;;5.30;99.90;;;;;;5048570;28;20822;-56
2021/11/12 15:18:37;;;;;;;44.53;20.47;;;5.10;99.90;;;;;;5044263;28;20434;-54
2021/11/12 15:21:07;;;;;;;51.10;20.90;;;5.00;99.90;;;;;;5044659;28;20584;-54
2021/11/12 15:23:44;;;;;;;39.10;19.57;;;5.20;99.90;;;;;;5049043;28;20175;-54
2021/11/12 15:32:03;;;;;;;36.87;19.20;;;5.20;99.90;;;;;;5042884;28;20459;-51
2021/11/12 15:34:32;;;;;;;43.10;21.23;;;5.10;99.90;;;;;;5047728;28;20442;-55
2021/11/12 15:37:16;;;;;;;43.50;21.00;;;5.00;99.90;;;;;;5044174;28;20987;-52
2021/11/12 15:39:54;;;;;;;55.07;26.10;;;4.90;99.90;;;;;;5044190;28;20469;-54
2021/11/12 15:45:18;;;;;;;44.23;21.10;;;4.60;99.90;;;;;;5030503;28;20863;-55
2021/11/12 15:47:46;;;;;;;55.80;23.73;;;4.70;99.90;;;;;;5042610;28;20484;-55
2021/11/12 15:50:59;;;;;;;37.57;20.20;;;4.70;99.90;;;;;;5042725;28;20458;-56
2021/11/12 16:08:53;;;;;;;44.93;22.53;;;4.90;99.90;;;;;;5044278;28;20832;-55
2021/11/12 16:13:52;;;;;;;38.77;20.00;;;5.10;99.90;;;;;;5041178;28;20823;-54
2021/11/12 16:18:54;;;;;;;47.30;21.93;;;4.60;99.90;;;;;;5043223;28;20430;-54
2021/11/12 16:21:37;;;;;;;54.70;22.73;;;4.60;99.90;;;;;;5041069;28;20488;-55
2021/11/12 16:24:15;;;;;;;51.93;23.53;;;4.60;99.90;;;;;;5042923;28;20422;-54
2021/11/12 16:26:46;;;;;;;64.13;24.50;;;4.40;99.90;;;;;;5038340;28;20419;-52
2021/11/12 16:29:55;;;;;;;56.80;24.43;;;4.50;99.90;;;;;;5040484;28;20477;-57
2021/11/12 16:32:04;;;;;;;60.30;25.23;;;4.60;99.90;;;;;;5040173;28;20963;-55
2021/11/12 16:34:34;;;;;;;55.77;24.60;;;4.60;99.90;;;;;;5041446;28;20458;-56
2021/11/12 16:37:02;;;;;;;51.60;23.67;;;4.80;99.90;;;;;;5047835;28;20442;-55
2021/11/12 16:39:33;;;;;;;49.03;23.27;;;4.90;99.90;;;;;;5047346;28;20450;-55
2021/11/12 16:42:50;;;;;;;50.43;25.17;;;5.00;99.90;;;;;;5040199;28;20458;-55
2021/11/12 16:44:58;;;;;;;59.10;24.17;;;5.20;99.90;;;;;;5035341;28;22188;-52
2021/11/12 16:47:31;;;;;;;44.90;21.67;;;5.30;99.90;;;;;;5040227;28;20928;-53
2021/11/12 16:55:29;;;;;;;55.93;25.10;;;5.50;99.90;;;;;;5039143;28;20471;-55
2021/11/12 17:05:51;;;;;;;49.63;22.77;;;5.30;99.90;;;;;;5043044;28;20422;-51
2021/11/12 17:21:27;;;;;;;44.20;20.67;;;5.20;99.90;;;;;;5043447;28;21817;-53
2021/11/12 17:48:11;;;;;;;44.13;20.00;;;5.00;99.90;;;;;;5042868;28;20888;-55
2021/11/12 17:51:04;;;;;;;43.47;20.33;;;5.00;99.90;;;;;;5039588;28;21023;-54
2021/11/12 18:01:34;;;;;;;35.10;19.37;;;4.90;99.90;;;;;;5043882;28;20423;-53
2021/11/12 18:02:03;;;;;;;39.73;18.63;;;4.70;99.90;;;;;;5045537;28;20417;-53
2021/11/12 18:08:15;;;;;;;42.43;22.00;;;4.50;99.90;;;;;;5041655;28;20456;-54
2021/11/12 21:45:03;;;;;;;27.50;14.77;;;4.30;99.90;;;;;;5044097;28;20421;-55
2021/11/12 21:47:29;;;;;;;26.17;15.13;;;4.20;99.90;;;;;;5056078;28;20436;-52
2021/11/12 21:49:55;;;;;;;26.93;14.73;;;4.30;99.90;;;;;;5045497;28;20430;-56
2021/11/12 21:52:21;;;;;;;27.53;14.30;;;4.20;99.90;;;;;;5044736;28;20180;-54
2021/11/12 21:54:47;;;;;;;27.27;13.70;;;4.20;99.90;;;;;;5053392;28;20433;-53
2021/11/12 21:57:13;;;;;;;26.63;14.13;;;4.30;99.90;;;;;;5047257;28;20549;-54
2021/11/12 21:59:38;;;;;;;29.30;15.10;;;4.20;99.90;;;;;;5046419;28;20462;-53
2021/11/12 22:02:05;;;;;;;28.70;15.63;;;4.40;99.90;;;;;;5052212;28;20671;-51
2021/11/12 22:04:30;;;;;;;28.67;17.33;;;4.50;99.90;;;;;;5045780;28;20716;-52
2021/11/12 22:06:57;;;;;;;25.10;13.40;;;4.40;99.90;;;;;;5049573;28;20191;-53
2021/11/12 22:09:23;;;;;;;29.40;15.80;;;4.30;99.90;;;;;;5048181;28;20212;-51
2021/11/12 22:11:49;;;;;;;30.90;16.10;;;4.30;99.90;;;;;;5045570;28;20447;-51
2021/11/12 22:14:14;;;;;;;29.90;14.40;;;4.40;99.90;;;;;;5046600;28;20923;-55
2021/11/12 22:16:40;;;;;;;22.53;13.80;;;4.50;99.90;;;;;;5048211;28;20502;-53
2021/11/12 22:19:06;;;;;;;33.63;15.70;;;4.40;99.90;;;;;;5045139;28;20220;-56
2021/11/12 22:21:31;;;;;;;30.60;15.03;;;4.20;99.90;;;;;;5044400;28;20184;-52
2021/11/12 22:23:58;;;;;;;28.20;14.50;;;4.40;99.90;;;;;;5048438;28;20177;-53
2021/11/12 22:26:23;;;;;;;27.50;15.77;;;4.30;99.90;;;;;;5043225;28;20565;-53